Time;durP1;ratioP1;P1;durP2;ratioP2;P2;SDS_P1;SDS_P2;PMS_P1;PMS_P2;Temp;Humidity;BMP_temperature;BMP_pressure;BME280_temperature;BME280_humidity;BME280_pressure;Samples;Min_cycle;Max_cycle;Signal;HPM_P1;HPM_P2
2022/02/27 00:00:02;;;;;;;5.13;2.60;;;;;;;-0.07;52.22;93278.34;4977414;28;20043;-89
2022/02/27 00:02:35;;;;;;;6.60;2.72;;;;;;;-0.17;52.80;93277.97;4992615;28;20050;-89
2022/02/27 00:05:28;;;;;;;5.38;2.33;;;;;;;-0.15;53.11;93276.00;4992648;28;20054;-90
2022/02/27 00:08:07;;;;;;;5.95;2.50;;;;;;;-0.16;52.93;93287.28;4982059;28;20050;-89
2022/02/27 00:10:43;;;;;;;4.90;2.53;;;;;;;0.03;52.34;93322.50;4993732;28;20113;-89
2022/02/27 00:13:32;;;;;;;4.68;2.30;;;;;;;-0.22;53.00;93274.22;4995070;28;20049;-89
2022/02/27 00:16:41;;;;;;;;;;;;;;;;;;;;;
2022/02/27 00:19:24;;;;;;;;;;;;;;;;;;;;;
2022/02/27 00:22:18;;;;;;;6.78;2.40;;;;;;;-0.33;52.46;93295.41;4985565;28;20131;-90
2022/02/27 00:24:54;;;;;;;;;;;;;;;;;;;;;
2022/02/27 00:27:29;;;;;;;6.22;2.47;;;;;;;-0.28;53.00;93320.53;4975770;28;20392;-89
2022/02/27 00:30:02;;;;;;;4.28;2.00;;;;;;;-0.63;53.55;93269.31;4975528;28;20125;-89
2022/02/27 00:32:45;;;;;;;4.20;2.33;;;;;;;-0.61;53.70;93282.75;4987252;28;20022;-89
2022/02/27 00:35:46;;;;;;;4.90;2.38;;;;;;;-0.80;53.44;93258.63;4977433;28;20034;-90
2022/02/27 00:38:25;;;;;;;4.25;2.38;;;;;;;-0.89;53.17;93255.44;4977258;28;20035;-88
2022/02/27 00:41:23;;;;;;;7.07;2.30;;;;;;;-0.96;53.77;93253.88;4993619;28;20049;-89
2022/02/27 00:44:00;;;;;;;4.47;2.13;;;;;;;-1.00;53.37;93260.38;4989757;28;20038;-89
2022/02/27 00:46:37;;;;;;;5.60;2.60;;;;;;;-0.56;53.47;93338.72;4973437;28;20035;-89
2022/02/27 00:49:21;;;;;;;5.85;2.15;;;;;;;-1.15;53.77;93256.22;4959941;28;20047;-90
2022/02/27 00:51:59;;;;;;;7.97;2.40;;;;;;;-1.17;53.63;93255.63;4973629;28;20101;-90
2022/02/27 00:54:29;;;;;;;4.90;2.47;;;;;;;-1.30;53.97;93242.75;4957759;28;20502;-91
2022/02/27 00:57:07;;;;;;;3.70;2.00;;;;;;;-0.96;53.45;93292.44;4973755;28;20039;-89
2022/02/27 00:59:55;;;;;;;;;;;;;;;;;;;;;
2022/02/27 01:02:54;;;;;;;5.45;2.10;;;;;;;-1.03;53.41;93301.91;4974152;28;20035;-89
2022/02/27 01:05:49;;;;;;;4.57;2.03;;;;;;;-1.40;54.47;93244.91;4971469;28;20459;-89
2022/02/27 01:08:40;;;;;;;4.00;2.17;;;;;;;-1.16;54.01;93290.59;4973526;28;20042;-90
2022/02/27 01:11:21;;;;;;;;;;;;;;;;;;;;;
2022/02/27 01:16:49;;;;;;;6.63;2.15;;;;;;;-1.48;54.49;93240.75;4973691;28;20034;-89
2022/02/27 01:19:41;;;;;;;4.25;1.98;;;;;;;-1.55;54.78;93227.09;4973198;28;20031;-88
2022/02/27 01:22:36;;;;;;;4.88;2.10;;;;;;;-1.42;54.46;93264.84;4974251;28;20051;-89
2022/02/27 01:25:29;;;;;;;4.88;1.90;;;;;;;-1.12;54.71;93311.56;4972903;28;20038;-89
2022/02/27 01:28:20;;;;;;;;;;;;;;;;;;;;;
2022/02/27 01:30:51;;;;;;;4.13;2.00;;;;;;;-1.26;54.51;93292.78;4959017;28;20667;-90
2022/02/27 01:33:24;;;;;;;3.45;1.85;;;;;;;-1.69;54.76;93223.69;4973062;28;20042;-89
2022/02/27 01:36:04;;;;;;;3.72;1.98;;;;;;;-1.72;55.26;93229.22;4975087;28;20066;-88
2022/02/27 01:38:40;;;;;;;4.28;2.03;;;;;;;-1.30;55.11;93278.72;4958426;28;20041;-88
2022/02/27 01:41:32;;;;;;;;;;;;;;;;;;;;;
2022/02/27 01:44:10;;;;;;;6.32;2.20;;;;;;;-1.44;55.43;93267.63;4993458;28;20022;-89
2022/02/27 01:47:08;;;;;;;6.63;2.00;;;;;;;-1.79;55.21;93218.91;4984729;28;20038;-89
2022/02/27 01:49:44;;;;;;;3.43;2.03;;;;;;;-1.84;55.68;93205.88;5010960;28;20524;-89
2022/02/27 01:52:38;;;;;;;3.33;1.95;;;;;;;-1.84;55.28;93215.34;4996964;28;20038;-89
2022/02/27 01:58:20;;;;;;;4.35;1.85;;;;;;;-1.60;55.90;93247.41;4972982;28;20055;-89
2022/02/27 02:01:03;;;;;;;3.60;1.92;;;;;;;-1.90;55.96;93214.34;4990328;28;20094;-89
2022/02/27 02:03:40;;;;;;;4.32;1.90;;;;;;;-1.81;55.99;93245.75;4957738;28;20035;-91
2022/02/27 02:06:31;;;;;;;4.13;1.83;;;;;;;-2.00;56.36;93209.56;4988551;28;20392;-89
2022/02/27 02:09:20;;;;;;;5.18;2.22;;;;;;;-2.05;56.78;93193.16;4959081;28;20038;-89
2022/02/27 02:12:07;;;;;;;3.80;2.00;;;;;;;-1.89;56.50;93214.16;4973084;28;20038;-89
2022/02/27 02:14:41;;;;;;;2.90;1.52;;;;;;;-1.62;57.37;93249.38;4988589;28;20035;-89
2022/02/27 02:17:12;;;;;;;6.43;2.10;;;;;;;-1.97;57.10;93200.69;4956750;28;20063;-89
2022/02/27 02:19:55;;;;;;;6.65;1.77;;;;;;;-1.97;58.92;93206.63;4972852;28;20039;-88
2022/02/27 02:23:00;;;;;;;;;;;;;;;;;;;;;
2022/02/27 02:25:31;;;;;;;4.85;2.05;;;;;;;-1.86;59.38;93212.97;4976590;28;20042;-89
2022/02/27 02:28:02;;;;;;;8.50;2.08;;;;;;;-1.93;59.33;93207.03;4988505;28;20125;-89
2022/02/27 02:30:59;;;;;;;4.88;2.03;;;;;;;-1.59;59.73;93243.88;4973120;28;20039;-89
2022/02/27 02:33:44;;;;;;;3.20;1.77;;;;;;;-1.47;61.29;93255.94;4957684;28;20057;-89
2022/02/27 02:39:27;;;;;;;4.03;2.00;;;;;;;-1.94;60.07;93190.81;4971033;28;20127;-89
2022/02/27 02:42:21;;;;;;;4.18;2.10;;;;;;;-1.88;59.96;93208.03;4975382;28;20069;-89
2022/02/27 02:45:12;;;;;;;6.43;2.50;;;;;;;-2.01;60.00;93184.88;4991491;28;20031;-88
2022/02/27 02:48:00;;;;;;;;;;;;;;;;;;;;;
2022/02/27 02:50:31;;;;;;;5.35;2.28;;;;;;;-2.13;59.85;93189.78;4992662;28;20046;-88
2022/02/27 02:55:56;;;;;;;6.65;2.10;;;;;;;-1.83;59.90;93234.91;4994949;28;20137;-89
2022/02/27 02:58:56;;;;;;;4.25;2.33;;;;;;;-2.21;59.95;93178.88;4994224;28;20034;-89
2022/02/27 03:01:45;;;;;;;5.40;2.30;;;;;;;-1.83;59.58;93242.59;4994828;28;20499;-89
2022/02/27 03:04:29;;;;;;;;;;;;;;;;;;;;;
2022/02/27 03:06:59;;;;;;;6.18;2.00;;;;;;;-2.26;60.24;93176.09;4976694;28;20035;-89
2022/02/27 03:09:41;;;;;;;;;;;;;;;;;;;;;
2022/02/27 03:12:12;;;;;;;4.82;2.20;;;;;;;-2.21;59.95;93189.94;4994291;28;20050;-88
2022/02/27 03:14:53;;;;;;;;;;;;;;;;;;;;;
2022/02/27 03:17:29;;;;;;;4.53;2.15;;;;;;;-1.95;60.81;93217.47;4996023;28;20034;-88
2022/02/27 03:20:07;;;;;;;;;;;;;;;;;;;;;
2022/02/27 03:22:39;;;;;;;3.75;2.00;;;;;;;-2.26;60.71;93188.94;4994651;28;20038;-89
2022/02/27 03:25:30;;;;;;;3.60;2.10;;;;;;;-2.16;61.22;93203.00;4979197;28;20053;-89
2022/02/27 03:28:40;;;;;;;8.15;2.38;;;;;;;-1.78;61.38;93255.63;4995176;28;20043;-88
2022/02/27 03:31:28;;;;;;;;;;;;;;;;;;;;;
2022/02/27 03:34:19;;;;;;;5.75;2.20;;;;;;;-2.28;61.74;93190.88;4974707;28;20042;-88
2022/02/27 03:37:00;;;;;;;5.57;2.22;;;;;;;-2.32;61.85;93183.59;4958975;28;20042;-88
2022/02/27 03:39:42;;;;;;;5.05;1.95;;;;;;;-2.34;62.80;93180.41;4959690;28;20055;-88
2022/02/27 03:42:22;;;;;;;5.13;2.45;;;;;;;-2.11;62.73;93213.47;4981191;28;20121;-88
2022/02/27 03:45:01;;;;;;;5.55;2.30;;;;;;;-2.16;62.98;93207.31;4994879;28;20038;-88
2022/02/27 03:47:47;;;;;;;5.82;2.30;;;;;;;-2.35;63.91;93171.13;4993698;28;20052;-88
2022/02/27 03:50:21;;;;;;;9.23;2.47;;;;;;;-2.42;64.02;93162.63;4994998;28;20038;-88
2022/02/27 03:53:05;;;;;;;;;;;;;;;;;;;;;
2022/02/27 03:55:39;;;;;;;7.40;2.08;;;;;;;-2.33;65.18;93187.13;4961034;28;20058;-88
2022/02/27 03:58:15;;;;;;;4.40;1.98;;;;;;;-2.16;65.20;93217.56;4974412;28;20507;-88
2022/02/27 04:01:01;;;;;;;5.78;2.00;;;;;;;-2.54;65.57;93169.28;4958242;28;20105;-90
2022/02/27 04:03:31;;;;;;;3.95;1.92;;;;;;;-2.54;65.82;93182.09;4980552;28;20128;-88
2022/02/27 04:06:07;;;;;;;5.03;1.90;;;;;;;-2.23;65.85;93224.44;4996528;28;20073;-89
2022/02/27 04:09:13;;;;;;;;;;;;;;;;;;;;;
2022/02/27 04:12:17;;;;;;;;;;;;;;;;;;;;;
2022/02/27 04:14:48;;;;;;;3.67;1.85;;;;;;;-2.11;66.20;93264.78;4989717;28;20056;-89
2022/02/27 04:17:26;;;;;;;4.20;2.08;;;;;;;-2.63;66.61;93180.66;4990425;28;20047;-87
2022/02/27 04:20:00;;;;;;;4.45;1.98;;;;;;;-2.63;66.27;93185.78;4973936;28;20126;-88
2022/02/27 04:22:46;;;;;;;;;;;;;;;;;;;;;
2022/02/27 04:25:31;;;;;;;4.78;1.90;;;;;;;-2.34;66.64;93234.28;4976242;28;20045;-88
2022/02/27 04:28:12;;;;;;;;;;;;;;;;;;;;;
2022/02/27 04:30:48;;;;;;;6.15;2.08;;;;;;;-2.74;66.31;93185.31;4973967;28;20562;-87
2022/02/27 04:33:18;;;;;;;4.35;1.90;;;;;;;-2.73;66.21;93181.75;4973979;28;20051;-88
2022/02/27 04:36:09;;;;;;;;;;;;;;;;;;;;;
2022/02/27 04:39:02;;;;;;;;;;;;;;;;;;;;;
2022/02/27 04:41:48;;;;;;;3.85;2.22;;;;;;;-2.41;65.25;93246.28;4974112;28;20126;-89
2022/02/27 04:44:24;;;;;;;3.70;1.85;;;;;;;-2.55;64.54;93222.28;4974006;28;20045;-88
2022/02/27 04:46:57;;;;;;;6.70;2.55;;;;;;;-2.81;63.96;93187.06;5002706;28;20043;-89
2022/02/27 04:49:45;;;;;;;;;;;;;;;;;;;;;
2022/02/27 04:52:29;;;;;;;5.28;2.60;;;;;;;-2.82;62.84;93182.88;4994546;28;20034;-89
2022/02/27 04:55:05;;;;;;;4.95;2.35;;;;;;;-2.50;62.48;93232.00;4976618;28;20484;-88
2022/02/27 04:57:52;;;;;;;5.00;2.50;;;;;;;-2.89;61.94;93166.69;4977928;28;20092;-88
2022/02/27 05:00:34;;;;;;;4.72;2.42;;;;;;;-2.87;61.53;93176.75;4963050;28;20042;-88
2022/02/27 05:03:06;;;;;;;4.57;2.28;;;;;;;-2.87;61.21;93187.78;4976771;28;20046;-88
2022/02/27 05:05:53;;;;;;;;;;;;;;;;;;;;;
2022/02/27 05:08:25;;;;;;;7.18;2.50;;;;;;;-2.90;60.52;93185.63;4990609;28;20041;-88
2022/02/27 05:11:19;;;;;;;5.07;2.20;;;;;;;-3.02;60.39;93162.25;4976282;28;20031;-89
2022/02/27 05:14:21;;;;;;;10.63;2.67;;;;;;;-2.89;60.78;93182.06;4980552;28;20042;-88
2022/02/27 05:17:00;;;;;;;3.35;2.03;;;;;;;-2.73;61.56;93196.34;4992177;28;20054;-87
2022/02/27 05:19:28;;;;;;;4.95;2.03;;;;;;;-2.64;61.09;93210.59;4976857;28;20073;-87
2022/02/27 05:22:06;;;;;;;6.00;2.38;;;;;;;-2.65;61.54;93221.84;4991405;28;20039;-88
2022/02/27 05:24:42;;;;;;;3.95;2.10;;;;;;;-2.60;61.23;93231.53;4977163;28;20101;-88
2022/02/27 05:27:17;;;;;;;3.97;1.90;;;;;;;-2.69;61.43;93227.53;5007014;28;20038;-89
2022/02/27 05:29:48;;;;;;;5.20;2.28;;;;;;;-2.84;61.19;93202.78;4973314;28;20043;-89
2022/02/27 05:32:16;;;;;;;6.35;2.50;;;;;;;-2.65;61.95;93239.00;4972480;28;20126;-88
2022/02/27 05:34:55;;;;;;;5.18;2.30;;;;;;;-2.93;62.19;93203.91;4962642;28;20034;-88
2022/02/27 05:37:28;;;;;;;3.60;2.03;;;;;;;-3.17;62.72;93180.28;4992481;28;20042;-88
2022/02/27 05:40:03;;;;;;;4.80;2.30;;;;;;;-3.02;62.40;93205.81;4977573;28;20069;-88
2022/02/27 05:42:39;;;;;;;4.10;1.90;;;;;;;-3.17;62.65;93185.41;4988877;28;20030;-84
2022/02/27 05:45:11;;;;;;;5.25;2.30;;;;;;;-3.15;62.79;93188.59;4983671;28;20042;-86
2022/02/27 05:47:39;;;;;;;4.68;2.10;;;;;;;-2.85;63.33;93234.53;4983810;28;20042;-85
2022/02/27 05:50:05;;;;;;;5.20;2.40;;;;;;;-3.15;63.06;93182.69;4974414;28;20388;-85
2022/02/27 05:52:43;;;;;;;4.00;2.10;;;;;;;-3.09;64.02;93199.06;4973352;28;20042;-85
2022/02/27 05:55:14;;;;;;;5.18;2.30;;;;;;;-2.79;63.86;93241.47;4963135;28;20532;-84
2022/02/27 05:57:45;;;;;;;6.75;2.33;;;;;;;-2.82;64.32;93233.34;4991257;28;20041;-85
2022/02/27 06:00:16;;;;;;;5.72;2.40;;;;;;;-3.13;64.59;93196.06;4987018;28;20068;-89
2022/02/27 06:02:44;;;;;;;3.67;2.15;;;;;;;-3.16;64.41;93194.66;4986067;28;20034;-85
2022/02/27 06:05:17;;;;;;;4.13;2.33;;;;;;;-2.80;64.62;93244.22;4999428;28;20050;-84
2022/02/27 06:07:45;;;;;;;5.60;2.30;;;;;;;-2.83;64.37;93232.56;4967011;28;20383;-84
2022/02/27 06:10:16;;;;;;;6.70;2.58;;;;;;;-3.13;64.50;93198.63;4988904;28;20050;-84
2022/02/27 06:12:49;;;;;;;4.85;2.50;;;;;;;-2.74;64.31;93246.84;4993770;28;20034;-85
2022/02/27 06:15:16;;;;;;;3.88;1.90;;;;;;;-2.74;64.70;93257.09;4979483;28;20157;-85
2022/02/27 06:17:42;;;;;;;9.77;2.50;;;;;;;-2.83;63.49;93232.56;4988922;28;20119;-84
2022/02/27 06:20:13;;;;;;;4.63;2.38;;;;;;;-2.84;63.55;93200.22;4986981;28;20487;-85
2022/02/27 06:22:52;;;;;;;5.13;2.28;;;;;;;-1.10;59.68;93178.56;4985837;28;20483;-90
2022/02/27 06:25:30;;;;;;;;;;;;;;;;;;;;;
2022/02/27 06:28:06;;;;;;;5.60;2.10;;;;;;;3.43;48.04;93271.38;5000473;28;20039;-89
2022/02/27 06:30:32;;;;;;;6.05;2.65;;;;;;;4.23;44.60;93192.28;4987767;28;20030;-90
2022/02/27 06:33:36;;;;;;;;;;;;;;;;;;;;;
2022/02/27 06:36:29;;;;;;;4.63;2.17;;;;;;;6.94;38.78;93212.94;4992609;28;20043;-90
2022/02/27 06:39:16;;;;;;;5.25;2.45;;;;;;;8.57;35.97;93262.09;4976398;28;20549;-88
2022/02/27 06:41:47;;;;;;;6.05;2.70;;;;;;;9.32;32.32;93249.50;4971856;28;20050;-88
2022/02/27 06:44:31;;;;;;;5.25;2.17;;;;;;;9.88;30.77;93210.31;4992426;28;20041;-90
2022/02/27 06:49:51;;;;;;;5.57;2.22;;;;;;;11.56;28.58;93272.81;4980123;28;20062;-88
2022/02/27 06:52:37;;;;;;;;;;;;;;;;;;;;;
2022/02/27 06:55:16;;;;;;;5.95;2.30;;;;;;;12.22;27.43;93248.69;4994782;28;20483;-90
2022/02/27 06:58:01;;;;;;;6.05;2.13;;;;;;;12.97;26.66;93226.34;4988362;28;20050;-88
2022/02/27 07:00:39;;;;;;;4.43;2.47;;;;;;;13.37;25.51;93220.84;4975693;28;20035;-89
2022/02/27 07:03:19;;;;;;;5.30;2.80;;;;;;;13.76;24.77;93223.16;4987540;28;20061;-89
2022/02/27 07:05:57;;;;;;;5.10;2.63;;;;;;;14.50;23.11;93233.75;5009565;28;20511;-89
2022/02/27 07:08:34;;;;;;;5.57;2.70;;;;;;;14.19;23.24;93219.56;4992813;28;20066;-89
2022/02/27 07:11:20;;;;;;;5.07;2.50;;;;;;;14.09;22.92;93226.56;4992893;28;20030;-89
2022/02/27 07:13:57;;;;;;;5.68;2.85;;;;;;;14.94;21.57;93236.91;4961145;28;20423;-89
2022/02/27 07:16:38;;;;;;;;;;;;;;;;;;;;;
2022/02/27 07:19:36;;;;;;;5.72;2.63;;;;;;;15.44;21.81;93226.34;4994957;28;20046;-88
2022/02/27 07:22:36;;;;;;;4.97;2.47;;;;;;;15.42;21.58;93270.72;4993707;28;20038;-89
2022/02/27 07:25:25;;;;;;;5.15;2.38;;;;;;;16.47;20.13;93242.44;4994249;28;20053;-89
2022/02/27 07:28:00;;;;;;;6.50;2.72;;;;;;;17.55;19.25;93275.47;4964015;28;20034;-89
2022/02/27 07:30:41;;;;;;;;;;;;;;;;;;;;;
2022/02/27 07:33:51;;;;;;;6.28;2.90;;;;;;;18.25;18.65;93238.38;4992441;28;20046;-90
2022/02/27 07:36:22;;;;;;;6.10;2.60;;;;;;;17.27;18.54;93225.47;4991813;28;20065;-89
2022/02/27 07:38:56;;;;;;;4.35;2.47;;;;;;;17.73;18.76;93286.06;4993160;28;20161;-90
2022/02/27 07:41:24;;;;;;;5.32;2.30;;;;;;;17.00;18.73;93257.44;4992824;28;20042;-89
2022/02/27 07:44:02;;;;;;;;;;;;;;;;;;;;;
2022/02/27 07:46:58;;;;;;;;;;;;;;;;;;;;;
2022/02/27 07:49:27;;;;;;;8.07;2.70;;;;;;;13.73;21.59;93242.94;4981393;28;20455;-88
2022/02/27 07:52:21;;;;;;;;;;;;;;;;;;;;;
2022/02/27 07:55:19;;;;;;;4.55;2.45;;;;;;;10.20;27.65;93256.31;4980473;28;20046;-89
2022/02/27 07:57:59;;;;;;;4.35;2.22;;;;;;;9.70;28.16;93242.22;4985066;28;20121;-89
2022/02/27 08:00:32;;;;;;;4.47;2.45;;;;;;;8.95;29.35;93279.97;4970736;28;20078;-88
2022/02/27 08:03:12;;;;;;;3.70;2.30;;;;;;;8.13;30.58;93224.78;4998769;28;20030;-88
2022/02/27 08:06:07;;;;;;;4.45;2.35;;;;;;;8.28;30.99;93231.91;4981853;28;20051;-88
2022/02/27 08:08:47;;;;;;;3.67;2.15;;;;;;;7.54;32.85;93273.63;4982304;28;20043;-88
2022/02/27 08:11:42;;;;;;;;;;;;;;;;;;;;;
2022/02/27 08:14:32;;;;;;;;;;;;;;;;;;;;;
2022/02/27 08:17:13;;;;;;;4.60;2.40;;;;;;;6.52;32.85;93236.94;4991777;28;20042;-88
2022/02/27 08:19:51;;;;;;;3.80;2.00;;;;;;;6.39;33.00;93228.44;4982921;28;20078;-88
2022/02/27 08:22:40;;;;;;;3.42;1.85;;;;;;;7.60;31.04;93281.25;4969737;28;20109;-89
2022/02/27 08:25:35;;;;;;;4.47;1.98;;;;;;;7.38;30.55;93311.78;4975750;28;20071;-91
2022/02/27 08:28:25;;;;;;;4.18;2.20;;;;;;;7.26;30.65;93310.09;4975361;28;20101;-87
2022/02/27 08:31:11;;;;;;;3.10;1.40;;;;;;;5.22;33.46;93301.00;4994626;28;20066;-88
2022/02/27 08:33:40;;;;;;;5.90;2.15;;;;;;;5.62;32.93;93247.38;4992083;28;20038;-89
2022/02/27 08:36:31;;;;;;;4.10;1.98;;;;;;;5.52;33.93;93284.38;4990321;28;20173;-89
2022/02/27 08:39:13;;;;;;;2.40;1.45;;;;;;;4.14;35.37;93272.22;4962502;28;20104;-88
2022/02/27 08:41:50;;;;;;;7.35;2.10;;;;;;;4.62;34.18;93231.41;5006564;28;20042;-89
2022/02/27 08:44:39;;;;;;;;;;;;;;;;;;;;;
2022/02/27 08:47:34;;;;;;;3.10;1.60;;;;;;;4.36;35.48;93249.06;4991322;28;20057;-88
2022/02/27 08:50:04;;;;;;;2.83;1.50;;;;;;;4.70;34.46;93269.94;4979768;28;20040;-89
2022/02/27 08:52:50;;;;;;;4.63;2.22;;;;;;;4.30;35.58;93246.59;4981257;28;20033;-89
2022/02/27 08:55:35;;;;;;;3.92;1.75;;;;;;;4.65;36.15;93256.88;4991090;28;20045;-88
2022/02/27 08:58:28;;;;;;;3.60;1.80;;;;;;;4.62;35.87;93288.47;4984903;28;20055;-89
2022/02/27 09:01:02;;;;;;;3.75;1.90;;;;;;;3.85;34.76;93250.59;4972849;28;20089;-88
2022/02/27 09:04:03;;;;;;;;;;;;;;;;;;;;;
2022/02/27 09:06:37;;;;;;;4.13;1.88;;;;;;;4.05;35.94;93296.06;4970727;28;20105;-88
2022/02/27 09:09:16;;;;;;;3.40;1.73;;;;;;;3.88;36.25;93263.09;4983307;28;20026;-88
2022/02/27 09:11:53;;;;;;;3.10;1.75;;;;;;;4.10;35.27;93265.91;4992165;28;20060;-88
2022/02/27 09:14:24;;;;;;;2.60;1.60;;;;;;;4.57;34.53;93263.22;4974557;28;20041;-86
2022/02/27 09:16:59;;;;;;;5.22;1.65;;;;;;;4.88;34.66;93288.94;4993043;28;20093;-87
2022/02/27 09:19:45;;;;;;;;;;;;;;;;;;;;;
2022/02/27 09:22:25;;;;;;;2.35;1.40;;;;;;;5.47;33.46;93275.69;4991378;28;20031;-87
2022/02/27 09:24:57;;;;;;;12.10;2.00;;;;;;;5.47;33.05;93266.13;4976081;28;20150;-88
2022/02/27 09:27:34;;;;;;;4.00;2.08;;;;;;;6.28;32.08;93264.97;4989826;28;20520;-87
2022/02/27 09:30:02;;;;;;;5.78;2.40;;;;;;;6.61;32.46;93264.09;4975597;28;20042;-87
2022/02/27 09:33:01;;;;;;;;;;;;;;;;;;;;;
2022/02/27 09:35:46;;;;;;;;;;;;;;;;;;;;;
2022/02/27 09:38:27;;;;;;;1.90;1.30;;;;;;;5.47;36.94;93284.28;4992513;28;20069;-88
2022/02/27 09:41:09;;;;;;;4.38;2.03;;;;;;;5.41;35.29;93309.38;4977146;28;20043;-88
2022/02/27 09:43:52;;;;;;;5.32;2.17;;;;;;;5.27;34.80;93276.13;4992312;28;20038;-87
2022/02/27 09:46:23;;;;;;;5.57;2.42;;;;;;;5.41;35.66;93311.19;5007910;28;20034;-87
2022/02/27 09:48:57;;;;;;;4.03;2.10;;;;;;;4.81;36.55;93291.69;4991429;28;20105;-87
2022/02/27 09:51:33;;;;;;;4.88;2.13;;;;;;;5.23;36.45;93294.00;4988084;28;20740;-85
2022/02/27 09:53:59;;;;;;;7.72;2.40;;;;;;;5.07;36.32;93285.16;4975657;28;20129;-84
2022/02/27 09:56:27;;;;;;;2.50;1.15;;;;;;;4.71;36.65;93284.50;4991338;28;20030;-88
2022/02/27 09:58:54;;;;;;;2.05;1.38;;;;;;;5.25;36.43;93311.97;4980207;28;20101;-87
2022/02/27 10:01:20;;;;;;;5.70;2.47;;;;;;;5.16;37.30;93262.22;4977927;28;20061;-85
2022/02/27 10:03:46;;;;;;;6.53;2.30;;;;;;;5.16;37.30;93295.97;4983495;28;20035;-88
2022/02/27 10:06:18;;;;;;;5.68;2.47;;;;;;;5.37;36.37;93278.91;4973473;28;20054;-85
2022/02/27 10:08:56;;;;;;;4.00;2.00;;;;;;;5.47;36.21;93288.69;4990600;28;20118;-86
2022/02/27 10:11:22;;;;;;;4.35;2.13;;;;;;;5.64;37.13;93273.91;5002560;28;20038;-85
2022/02/27 10:13:52;;;;;;;3.90;2.15;;;;;;;4.76;36.81;93269.03;4995611;28;20030;-86
2022/02/27 10:16:24;;;;;;;5.00;2.17;;;;;;;6.24;36.61;93330.47;4982360;28;20038;-85
2022/02/27 10:18:54;;;;;;;4.25;2.30;;;;;;;6.35;36.73;93335.78;4998813;28;20034;-86
2022/02/27 10:21:41;;;;;;;4.30;1.73;;;;;;;5.60;36.77;93315.13;4981316;28;20045;-87
2022/02/27 10:24:10;;;;;;;2.60;1.55;;;;;;;5.51;37.30;93316.53;4980364;28;20391;-86
2022/02/27 10:26:43;;;;;;;4.03;1.85;;;;;;;6.14;36.80;93334.72;4990430;28;20030;-86
2022/02/27 10:29:14;;;;;;;4.93;2.08;;;;;;;5.65;36.61;93311.84;4982182;28;20126;-85
2022/02/27 10:31:41;;;;;;;5.53;2.30;;;;;;;6.34;36.73;93308.22;4976787;28;20045;-85
2022/02/27 10:34:17;;;;;;;5.00;2.50;;;;;;;6.94;35.21;93309.25;4968852;28;20778;-87
2022/02/27 10:36:57;;;;;;;5.13;2.42;;;;;;;6.79;35.72;93326.22;4989712;28;20373;-86
2022/02/27 10:39:38;;;;;;;4.40;2.15;;;;;;;6.21;37.21;93327.53;4974901;28;20066;-86
2022/02/27 10:42:10;;;;;;;2.00;1.20;;;;;;;6.46;34.69;93335.72;4974558;28;20093;-86
2022/02/27 10:44:37;;;;;;;2.55;1.52;;;;;;;6.46;34.78;93317.50;4980938;28;20027;-87
2022/02/27 10:47:21;;;;;;;4.70;2.78;;;;;;;6.28;35.08;93319.56;4981919;28;20038;-86
2022/02/27 10:49:49;;;;;;;5.25;1.55;;;;;;;6.48;34.10;93319.84;4996985;28;20083;-85
2022/02/27 10:52:21;;;;;;;7.13;2.05;;;;;;;6.29;35.46;93311.53;4976471;28;20050;-85
2022/02/27 10:54:49;;;;;;;3.77;1.90;;;;;;;5.60;35.84;93322.94;4991590;28;20104;-85
2022/02/27 10:57:45;;;;;;;2.58;1.55;;;;;;;6.32;34.71;93316.25;4975682;28;20037;-86
2022/02/27 11:00:17;;;;;;;2.95;1.77;;;;;;;6.65;34.78;93315.41;4973679;28;20077;-86
2022/02/27 11:02:45;;;;;;;6.18;2.38;;;;;;;6.45;34.39;93326.31;4996322;28;20041;-86
2022/02/27 11:05:13;;;;;;;5.03;2.30;;;;;;;6.48;33.58;93317.25;4995576;28;20058;-87
2022/02/27 11:07:42;;;;;;;5.88;2.20;;;;;;;6.83;33.32;93305.72;4975984;28;20039;-86
2022/02/27 11:10:15;;;;;;;3.72;1.90;;;;;;;6.24;33.77;93268.06;4984207;28;20031;-85
2022/02/27 11:12:41;;;;;;;3.60;1.85;;;;;;;6.52;33.47;93310.53;5003002;28;20133;-86
2022/02/27 11:15:09;;;;;;;3.72;1.73;;;;;;;6.59;32.78;93305.16;4994066;28;20660;-85
2022/02/27 11:17:36;;;;;;;6.05;2.00;;;;;;;6.88;31.75;93306.56;4994039;28;20045;-86
2022/02/27 11:20:05;;;;;;;3.85;2.05;;;;;;;6.41;30.59;93288.81;4992775;28;20053;-86
2022/02/27 11:22:31;;;;;;;3.90;1.80;;;;;;;6.31;31.50;93283.50;4990756;28;20055;-86
2022/02/27 11:24:58;;;;;;;2.65;1.30;;;;;;;6.80;32.13;93306.19;4977878;28;20030;-85
2022/02/27 11:27:28;;;;;;;2.55;1.42;;;;;;;6.52;32.13;93309.75;4994104;28;20039;-86
2022/02/27 11:29:56;;;;;;;3.05;1.65;;;;;;;6.29;30.91;93295.94;4994653;28;20039;-85
2022/02/27 11:32:22;;;;;;;3.80;1.67;;;;;;;6.08;29.95;93304.47;4985318;28;20492;-86
2022/02/27 11:34:48;;;;;;;3.35;1.60;;;;;;;6.66;29.82;93292.75;4974658;28;20057;-85
2022/02/27 11:37:14;;;;;;;2.85;1.50;;;;;;;6.15;29.23;93290.28;4942244;28;20038;-84
2022/02/27 11:42:47;;;;;;;4.30;2.15;;;;;;;6.74;30.17;93286.38;4982154;28;20035;-84
2022/02/27 11:45:17;;;;;;;4.93;2.15;;;;;;;7.32;30.21;93256.25;4987831;28;20121;-85
2022/02/27 11:47:49;;;;;;;4.78;2.20;;;;;;;7.29;29.55;93280.16;4993068;28;20043;-85
2022/02/27 11:50:38;;;;;;;2.92;1.65;;;;;;;7.56;28.38;93282.75;4993526;28;20045;-85
2022/02/27 11:53:21;;;;;;;7.80;3.33;;;;;;;8.31;28.65;93274.97;4998530;28;20118;-86
2022/02/27 11:56:38;;;;;;;;;;;;;;;;;;;;;
2022/02/27 11:59:53;;;;;;;3.05;1.50;;;;;;;7.11;29.82;93213.59;4994616;28;20038;-88
2022/02/27 12:02:36;;;;;;;4.45;1.88;;;;;;;6.95;29.27;93204.09;4993179;28;20500;-86
2022/02/27 12:05:09;;;;;;;3.50;1.60;;;;;;;6.87;29.68;93245.13;4978975;28;20074;-85
2022/02/27 12:08:15;;;;;;;3.58;1.55;;;;;;;7.36;29.95;93269.56;4992637;28;20129;-85
2022/02/27 12:11:06;;;;;;;3.72;1.65;;;;;;;7.12;29.04;93266.47;4990102;28;20034;-88
2022/02/27 12:21:20;;;;;;;5.25;1.63;;;;;;;6.71;30.22;93178.34;4972172;28;20065;-87
2022/02/27 12:24:06;;;;;;;3.78;1.90;;;;;;;6.91;29.16;93187.38;4984218;28;20062;-88
2022/02/27 12:26:39;;;;;;;2.90;1.60;;;;;;;6.53;29.52;93249.69;4989402;28;20077;-87
2022/02/27 12:29:05;;;;;;;3.15;1.50;;;;;;;5.90;28.65;93175.53;4991734;28;20134;-89
2022/02/27 12:31:40;;;;;;;3.15;1.92;;;;;;;7.05;28.38;93185.97;4966048;28;20031;-87
2022/02/27 12:34:18;;;;;;;4.75;1.90;;;;;;;6.87;28.95;93182.66;4991615;28;20045;-87
2022/02/27 12:37:01;;;;;;;2.00;1.58;;;;;;;7.27;28.20;93180.66;4956876;28;20070;-88
2022/02/27 12:39:50;;;;;;;3.15;1.40;;;;;;;7.22;28.32;93228.28;4978384;28;20026;-87
2022/02/27 12:42:22;;;;;;;4.65;1.98;;;;;;;6.67;28.56;93180.66;4974202;28;20046;-86
2022/02/27 12:44:53;;;;;;;4.55;2.47;;;;;;;7.35;29.02;93179.44;4975076;28;20073;-89
2022/02/27 12:47:32;;;;;;;2.20;1.23;;;;;;;7.33;27.38;93160.66;4966726;28;20038;-87
2022/02/27 12:53:12;;;;;;;4.45;1.92;;;;;;;6.52;29.78;93210.91;4971223;28;20101;-87
2022/02/27 12:55:41;;;;;;;3.13;1.50;;;;;;;6.88;29.69;93158.19;4955804;28;20047;-87
2022/02/27 12:58:16;;;;;;;5.47;2.15;;;;;;;7.26;28.12;93158.28;4956204;28;20104;-87
2022/02/27 13:00:51;;;;;;;2.25;1.50;;;;;;;6.99;27.48;93164.28;5004881;28;20049;-87
2022/02/27 13:03:35;;;;;;;;;;;;;;;;;;;;;
2022/02/27 13:06:06;;;;;;;4.50;2.25;;;;;;;6.82;29.52;93174.81;4994412;28;20053;-87
2022/02/27 13:08:37;;;;;;;5.47;2.40;;;;;;;7.63;28.63;93186.94;4959157;28;20039;-87
2022/02/27 13:11:03;;;;;;;3.00;1.63;;;;;;;7.69;29.24;93213.81;4962003;28;20117;-87
2022/02/27 13:13:52;;;;;;;4.45;2.08;;;;;;;7.53;30.34;93240.81;4991325;28;20057;-87
2022/02/27 13:16:52;;;;;;;3.15;1.35;;;;;;;7.53;29.97;93236.38;4968348;28;20550;-87
2022/02/27 13:19:36;;;;;;;4.18;2.05;;;;;;;7.04;29.70;93166.16;4970216;28;20057;-87
2022/02/27 13:22:15;;;;;;;5.53;1.67;;;;;;;7.62;28.76;93174.16;4975178;28;20034;-87
2022/02/27 13:25:06;;;;;;;2.65;1.40;;;;;;;7.48;30.49;93202.47;4987753;28;20046;-87
2022/02/27 13:27:50;;;;;;;4.22;1.83;;;;;;;7.38;29.69;93184.13;4976722;28;20042;-87
2022/02/27 13:30:28;;;;;;;3.65;1.83;;;;;;;6.95;30.97;93168.41;4974941;28;20510;-87
2022/02/27 13:33:02;;;;;;;3.08;1.90;;;;;;;6.70;31.41;93187.19;4980495;28;20037;-87
2022/02/27 13:35:43;;;;;;;2.10;1.30;;;;;;;6.87;30.63;93159.25;4975081;28;20042;-87
2022/02/27 13:38:14;;;;;;;6.10;2.30;;;;;;;7.04;32.00;93160.94;4971250;28;20081;-88
2022/02/27 13:40:44;;;;;;;3.40;1.80;;;;;;;7.46;30.59;93152.44;4970884;28;20500;-86
2022/02/27 13:43:43;;;;;;;2.80;1.38;;;;;;;6.65;31.38;93145.50;4983732;28;20030;-87
2022/02/27 13:46:09;;;;;;;7.57;2.60;;;;;;;7.34;29.40;93149.19;4976125;28;20045;-87
2022/02/27 13:48:48;;;;;;;3.38;1.50;;;;;;;6.75;29.46;93153.41;4974552;28;20042;-86
2022/02/27 13:51:32;;;;;;;8.50;1.75;;;;;;;6.93;29.75;93154.09;4975681;28;20484;-87
2022/02/27 13:54:19;;;;;;;3.90;2.10;;;;;;;7.41;29.81;93212.31;4959303;28;20125;-86
2022/02/27 13:57:19;;;;;;;;;;;;;;;;;;;;;
2022/02/27 14:00:20;;;;;;;6.13;2.10;;;;;;;6.96;29.97;93164.00;4991844;28;20680;-87